sensor_id;sensor_type;location;lat;lon;timestamp;noise_LAeq;noise_LA_min;noise_LA_max;noise_LA01;noise_LA95
74504;Laerm;62988;55.776;37.544;2022-09-17T00:00:34;50.01;43.94;59.47;;
74504;Laerm;62988;55.776;37.544;2022-09-17T00:02:59;49.84;44.48;54.49;;
74504;Laerm;62988;55.776;37.544;2022-09-17T00:05:26;50.44;44.49;59.46;;
74504;Laerm;62988;55.776;37.544;2022-09-17T00:07:52;49.14;43.35;55.83;;
74504;Laerm;62988;55.776;37.544;2022-09-17T00:10:19;50.49;45.86;54.66;;
74504;Laerm;62988;55.776;37.544;2022-09-17T00:12:46;50.03;45.16;55.13;;
74504;Laerm;62988;55.776;37.544;2022-09-17T00:15:12;49.69;43.22;55.67;;
74504;Laerm;62988;55.776;37.544;2022-09-17T00:17:38;50.30;44.28;59.22;;
74504;Laerm;62988;55.776;37.544;2022-09-17T00:20:04;50.86;46.25;57.84;;
74504;Laerm;62988;55.776;37.544;2022-09-17T00:22:32;49.40;45.21;57.66;;
74504;Laerm;62988;55.776;37.544;2022-09-17T00:24:58;49.95;43.90;55.10;;
74504;Laerm;62988;55.776;37.544;2022-09-17T00:27:23;50.25;43.90;59.26;;
74504;Laerm;62988;55.776;37.544;2022-09-17T00:29:49;49.73;44.50;56.00;;
74504;Laerm;62988;55.776;37.544;2022-09-17T00:32:14;48.97;44.13;54.84;;
74504;Laerm;62988;55.776;37.544;2022-09-17T00:34:41;50.21;45.71;55.64;;
74504;Laerm;62988;55.776;37.544;2022-09-17T00:37:07;49.76;44.27;54.38;;
74504;Laerm;62988;55.776;37.544;2022-09-17T00:39:32;50.32;42.91;60.31;;
74504;Laerm;62988;55.776;37.544;2022-09-17T00:41:58;49.30;44.79;54.29;;
74504;Laerm;62988;55.776;37.544;2022-09-17T00:47:42;49.08;44.73;57.35;;
74504;Laerm;62988;55.776;37.544;2022-09-17T00:50:13;49.08;44.30;59.04;;
74504;Laerm;62988;55.776;37.544;2022-09-17T00:52:45;49.20;44.33;57.54;;
74504;Laerm;62988;55.776;37.544;2022-09-17T00:57:42;49.91;45.05;60.23;;
74504;Laerm;62988;55.776;37.544;2022-09-17T01:00:12;50.35;44.52;61.31;;
74504;Laerm;62988;55.776;37.544;2022-09-17T01:02:38;50.55;43.79;57.36;;
74504;Laerm;62988;55.776;37.544;2022-09-17T01:05:04;49.83;46.07;55.55;;
74504;Laerm;62988;55.776;37.544;2022-09-17T01:07:34;49.47;45.00;53.80;;
74504;Laerm;62988;55.776;37.544;2022-09-17T01:10:13;49.28;43.89;57.49;;
74504;Laerm;62988;55.776;37.544;2022-09-17T01:13:08;50.27;45.63;58.29;;
74504;Laerm;62988;55.776;37.544;2022-09-17T01:18:32;49.71;45.33;56.35;;
74504;Laerm;62988;55.776;37.544;2022-09-17T01:21:08;49.99;44.40;57.66;;
74504;Laerm;62988;55.776;37.544;2022-09-17T01:32:48;49.34;43.71;56.63;;
74504;Laerm;62988;55.776;37.544;2022-09-17T01:35:30;48.83;44.45;54.30;;
74504;Laerm;62988;55.776;37.544;2022-09-17T01:38:12;49.21;43.51;59.69;;
74504;Laerm;62988;55.776;37.544;2022-09-17T01:40:50;49.23;43.28;59.98;;
74504;Laerm;62988;55.776;37.544;2022-09-17T01:43:23;50.30;45.27;57.42;;
74504;Laerm;62988;55.776;37.544;2022-09-17T01:46:00;50.22;44.56;57.83;;
74504;Laerm;62988;55.776;37.544;2022-09-17T01:48:32;49.47;43.34;54.71;;
74504;Laerm;62988;55.776;37.544;2022-09-17T01:51:09;49.98;45.05;58.92;;
74504;Laerm;62988;55.776;37.544;2022-09-17T01:53:42;49.88;44.86;56.79;;
74504;Laerm;62988;55.776;37.544;2022-09-17T01:56:12;50.60;45.34;61.56;;
74504;Laerm;62988;55.776;37.544;2022-09-17T01:58:47;48.69;43.98;55.17;;
74504;Laerm;62988;55.776;37.544;2022-09-17T02:01:18;51.22;46.91;71.83;;
74504;Laerm;62988;55.776;37.544;2022-09-17T02:03:59;51.01;45.60;57.40;;
74504;Laerm;62988;55.776;37.544;2022-09-17T02:06:29;52.27;45.60;66.16;;
74504;Laerm;62988;55.776;37.544;2022-09-17T02:09:05;50.24;45.30;58.01;;
74504;Laerm;62988;55.776;37.544;2022-09-17T02:11:33;50.80;45.93;58.04;;
74504;Laerm;62988;55.776;37.544;2022-09-17T02:14:09;50.45;45.85;57.18;;
74504;Laerm;62988;55.776;37.544;2022-09-17T02:16:44;51.11;45.05;60.62;;
74504;Laerm;62988;55.776;37.544;2022-09-17T02:19:29;50.17;45.40;58.68;;
74504;Laerm;62988;55.776;37.544;2022-09-17T02:29:43;52.22;46.60;60.64;;
74504;Laerm;62988;55.776;37.544;2022-09-17T02:32:10;51.05;46.13;57.77;;
74504;Laerm;62988;55.776;37.544;2022-09-17T02:34:37;52.01;47.55;59.02;;
74504;Laerm;62988;55.776;37.544;2022-09-17T02:37:03;51.98;46.94;58.18;;
74504;Laerm;62988;55.776;37.544;2022-09-17T02:39:30;52.01;47.37;60.40;;
74504;Laerm;62988;55.776;37.544;2022-09-17T02:44:45;50.99;46.13;56.08;;
74504;Laerm;62988;55.776;37.544;2022-09-17T02:50:11;52.14;48.17;56.78;;
74504;Laerm;62988;55.776;37.544;2022-09-17T02:58:24;52.29;47.76;61.45;;
74504;Laerm;62988;55.776;37.544;2022-09-17T03:00:51;52.83;48.03;61.28;;
74504;Laerm;62988;55.776;37.544;2022-09-17T03:03:30;52.94;48.84;57.98;;
74504;Laerm;62988;55.776;37.544;2022-09-17T03:05:58;54.35;46.84;65.32;;
74504;Laerm;62988;55.776;37.544;2022-09-17T03:08:43;53.09;49.05;59.38;;
74504;Laerm;62988;55.776;37.544;2022-09-17T03:11:10;52.37;48.16;57.62;;
74504;Laerm;62988;55.776;37.544;2022-09-17T03:13:37;52.69;48.66;57.31;;
74504;Laerm;62988;55.776;37.544;2022-09-17T03:16:04;52.32;47.78;58.51;;
74504;Laerm;62988;55.776;37.544;2022-09-17T03:18:30;53.34;48.66;59.30;;
74504;Laerm;62988;55.776;37.544;2022-09-17T03:20:56;53.72;48.56;58.27;;
74504;Laerm;62988;55.776;37.544;2022-09-17T03:23:21;53.48;49.06;58.66;;
74504;Laerm;62988;55.776;37.544;2022-09-17T03:25:47;54.36;49.59;59.34;;
74504;Laerm;62988;55.776;37.544;2022-09-17T03:28:16;53.65;49.50;59.85;;
74504;Laerm;62988;55.776;37.544;2022-09-17T03:30:43;53.25;48.48;70.95;;
74504;Laerm;62988;55.776;37.544;2022-09-17T03:33:09;53.91;50.35;59.20;;
74504;Laerm;62988;55.776;37.544;2022-09-17T03:35:34;55.03;50.98;60.45;;
74504;Laerm;62988;55.776;37.544;2022-09-17T03:38:00;54.06;49.41;58.68;;
74504;Laerm;62988;55.776;37.544;2022-09-17T03:40:25;54.96;51.05;60.59;;
74504;Laerm;62988;55.776;37.544;2022-09-17T03:42:51;55.20;51.31;59.56;;
74504;Laerm;62988;55.776;37.544;2022-09-17T03:45:16;54.74;50.45;60.63;;
74504;Laerm;62988;55.776;37.544;2022-09-17T03:47:42;54.76;49.92;58.31;;
74504;Laerm;62988;55.776;37.544;2022-09-17T03:50:08;54.19;50.08;58.79;;
74504;Laerm;62988;55.776;37.544;2022-09-17T03:52:33;53.89;50.36;57.34;;
74504;Laerm;62988;55.776;37.544;2022-09-17T03:54:59;54.98;50.06;64.04;;
74504;Laerm;62988;55.776;37.544;2022-09-17T03:57:25;54.30;49.66;59.51;;
74504;Laerm;62988;55.776;37.544;2022-09-17T03:59:51;54.34;50.53;60.24;;
74504;Laerm;62988;55.776;37.544;2022-09-17T04:02:16;54.62;50.90;60.51;;
74504;Laerm;62988;55.776;37.544;2022-09-17T04:04:42;55.19;51.74;61.02;;
74504;Laerm;62988;55.776;37.544;2022-09-17T04:07:08;55.50;52.01;62.92;;
74504;Laerm;62988;55.776;37.544;2022-09-17T04:09:34;56.78;51.83;66.48;;
74504;Laerm;62988;55.776;37.544;2022-09-17T04:11:59;55.41;51.50;59.31;;
74504;Laerm;62988;55.776;37.544;2022-09-17T04:14:25;55.20;51.14;65.40;;
74504;Laerm;62988;55.776;37.544;2022-09-17T04:16:51;57.12;52.79;62.56;;
74504;Laerm;62988;55.776;37.544;2022-09-17T04:19:16;58.18;53.38;76.34;;
74504;Laerm;62988;55.776;37.544;2022-09-17T04:21:42;57.39;52.62;69.16;;
74504;Laerm;62988;55.776;37.544;2022-09-17T04:24:07;60.29;51.66;77.43;;
74504;Laerm;62988;55.776;37.544;2022-09-17T04:26:33;56.45;52.21;63.24;;
74504;Laerm;62988;55.776;37.544;2022-09-17T04:28:58;56.33;52.40;63.84;;
74504;Laerm;62988;55.776;37.544;2022-09-17T04:31:25;55.53;51.63;63.21;;
74504;Laerm;62988;55.776;37.544;2022-09-17T04:33:51;55.86;51.29;61.91;;
74504;Laerm;62988;55.776;37.544;2022-09-17T04:36:17;55.28;51.57;63.28;;
74504;Laerm;62988;55.776;37.544;2022-09-17T04:38:43;55.34;51.39;65.01;;
74504;Laerm;62988;55.776;37.544;2022-09-17T04:41:08;55.80;52.20;60.31;;
74504;Laerm;62988;55.776;37.544;2022-09-17T04:43:34;55.54;51.96;61.90;;
74504;Laerm;62988;55.776;37.544;2022-09-17T04:45:59;56.27;52.32;64.55;;
74504;Laerm;62988;55.776;37.544;2022-09-17T04:48:25;55.54;51.78;60.49;;
74504;Laerm;62988;55.776;37.544;2022-09-17T04:50:50;55.78;52.05;62.13;;
74504;Laerm;62988;55.776;37.544;2022-09-17T04:53:16;54.21;50.31;67.28;;
74504;Laerm;62988;55.776;37.544;2022-09-17T04:55:43;54.97;51.20;59.15;;
74504;Laerm;62988;55.776;37.544;2022-09-17T04:58:09;56.56;50.98;77.36;;
74504;Laerm;62988;55.776;37.544;2022-09-17T05:00:35;55.04;51.07;60.14;;
74504;Laerm;62988;55.776;37.544;2022-09-17T05:03:01;54.91;51.12;62.53;;
74504;Laerm;62988;55.776;37.544;2022-09-17T05:05:27;54.68;51.41;61.36;;
74504;Laerm;62988;55.776;37.544;2022-09-17T05:07:53;55.12;51.44;59.34;;
74504;Laerm;62988;55.776;37.544;2022-09-17T05:10:21;54.89;51.11;63.87;;
74504;Laerm;62988;55.776;37.544;2022-09-17T05:12:50;55.31;50.60;62.61;;
74504;Laerm;62988;55.776;37.544;2022-09-17T05:15:16;55.99;52.58;61.66;;
74504;Laerm;62988;55.776;37.544;2022-09-17T05:17:41;56.79;52.14;64.79;;
74504;Laerm;62988;55.776;37.544;2022-09-17T05:20:07;55.78;51.64;63.33;;
74504;Laerm;62988;55.776;37.544;2022-09-17T05:22:34;55.52;50.51;71.35;;
74504;Laerm;62988;55.776;37.544;2022-09-17T05:24:59;55.41;51.65;60.19;;
74504;Laerm;62988;55.776;37.544;2022-09-17T05:27:25;55.53;51.88;63.70;;
74504;Laerm;62988;55.776;37.544;2022-09-17T05:29:51;55.76;51.92;64.49;;
74504;Laerm;62988;55.776;37.544;2022-09-17T05:32:16;56.59;52.76;72.82;;
74504;Laerm;62988;55.776;37.544;2022-09-17T05:34:42;55.68;51.76;64.81;;
74504;Laerm;62988;55.776;37.544;2022-09-17T05:37:10;55.43;51.18;70.38;;
74504;Laerm;62988;55.776;37.544;2022-09-17T05:39:36;54.51;49.03;65.04;;
74504;Laerm;62988;55.776;37.544;2022-09-17T05:42:01;55.08;50.45;64.29;;
74504;Laerm;62988;55.776;37.544;2022-09-17T05:44:27;57.18;51.19;71.75;;
74504;Laerm;62988;55.776;37.544;2022-09-17T05:46:53;57.31;51.99;70.43;;
74504;Laerm;62988;55.776;37.544;2022-09-17T05:49:19;58.81;51.36;68.81;;
74504;Laerm;62988;55.776;37.544;2022-09-17T05:51:44;57.74;52.13;67.83;;
74504;Laerm;62988;55.776;37.544;2022-09-17T05:54:10;57.33;51.95;67.81;;
74504;Laerm;62988;55.776;37.544;2022-09-17T05:56:35;58.02;53.30;70.06;;
74504;Laerm;62988;55.776;37.544;2022-09-17T05:59:01;57.96;51.98;70.44;;
74504;Laerm;62988;55.776;37.544;2022-09-17T06:01:27;57.64;51.30;64.87;;
74504;Laerm;62988;55.776;37.544;2022-09-17T06:03:52;57.13;51.10;73.19;;
74504;Laerm;62988;55.776;37.544;2022-09-17T06:06:18;58.36;51.69;71.43;;
74504;Laerm;62988;55.776;37.544;2022-09-17T06:08:43;59.02;51.85;69.05;;
74504;Laerm;62988;55.776;37.544;2022-09-17T06:11:09;58.70;52.12;74.86;;
74504;Laerm;62988;55.776;37.544;2022-09-17T06:13:35;55.99;50.70;65.11;;
74504;Laerm;62988;55.776;37.544;2022-09-17T06:16:02;57.40;51.12;72.01;;
74504;Laerm;62988;55.776;37.544;2022-09-17T06:18:29;55.31;51.40;61.71;;
74504;Laerm;62988;55.776;37.544;2022-09-17T06:20:59;57.06;52.35;68.78;;
74504;Laerm;62988;55.776;37.544;2022-09-17T06:23:26;59.24;51.38;70.71;;
74504;Laerm;62988;55.776;37.544;2022-09-17T06:25:54;59.46;51.43;67.20;;
74504;Laerm;62988;55.776;37.544;2022-09-17T06:28:20;56.27;52.18;70.43;;
74504;Laerm;62988;55.776;37.544;2022-09-17T06:30:46;56.69;51.00;70.71;;
74504;Laerm;62988;55.776;37.544;2022-09-17T06:33:12;57.85;52.37;68.80;;
74504;Laerm;62988;55.776;37.544;2022-09-17T06:35:38;59.44;52.79;70.41;;
74504;Laerm;62988;55.776;37.544;2022-09-17T06:38:04;61.00;53.46;69.04;;
74504;Laerm;62988;55.776;37.544;2022-09-17T06:40:30;56.45;51.62;68.99;;
74504;Laerm;62988;55.776;37.544;2022-09-17T06:42:56;56.88;52.39;67.45;;
74504;Laerm;62988;55.776;37.544;2022-09-17T06:45:23;56.61;51.04;67.31;;
74504;Laerm;62988;55.776;37.544;2022-09-17T06:47:48;57.24;51.16;66.09;;
74504;Laerm;62988;55.776;37.544;2022-09-17T06:50:14;59.80;52.28;67.34;;
74504;Laerm;62988;55.776;37.544;2022-09-17T06:52:47;59.66;53.00;68.94;;
74504;Laerm;62988;55.776;37.544;2022-09-17T06:55:12;57.04;52.92;64.88;;
74504;Laerm;62988;55.776;37.544;2022-09-17T06:57:38;57.86;53.17;66.52;;
74504;Laerm;62988;55.776;37.544;2022-09-17T07:00:04;57.88;53.84;68.34;;
74504;Laerm;62988;55.776;37.544;2022-09-17T07:02:29;57.56;52.59;66.00;;
74504;Laerm;62988;55.776;37.544;2022-09-17T07:04:55;60.70;53.58;74.28;;
74504;Laerm;62988;55.776;37.544;2022-09-17T07:07:20;60.98;54.93;67.56;;
74504;Laerm;62988;55.776;37.544;2022-09-17T07:09:46;57.09;52.16;68.79;;
74504;Laerm;62988;55.776;37.544;2022-09-17T07:12:11;57.68;54.05;66.53;;
74504;Laerm;62988;55.776;37.544;2022-09-17T07:14:39;59.27;54.83;80.87;;
74504;Laerm;62988;55.776;37.544;2022-09-17T07:17:04;58.93;53.26;70.07;;
74504;Laerm;62988;55.776;37.544;2022-09-17T07:19:31;60.92;53.46;69.55;;
74504;Laerm;62988;55.776;37.544;2022-09-17T07:21:57;58.93;54.35;69.06;;
74504;Laerm;62988;55.776;37.544;2022-09-17T07:24:23;58.34;53.07;67.50;;
74504;Laerm;62988;55.776;37.544;2022-09-17T07:26:49;58.59;53.12;71.55;;
74504;Laerm;62988;55.776;37.544;2022-09-17T07:29:15;62.05;53.68;79.80;;
74504;Laerm;62988;55.776;37.544;2022-09-17T07:31:41;60.43;53.26;70.68;;
74504;Laerm;62988;55.776;37.544;2022-09-17T07:34:09;57.05;51.44;69.97;;
74504;Laerm;62988;55.776;37.544;2022-09-17T07:36:34;58.09;52.16;75.22;;
74504;Laerm;62988;55.776;37.544;2022-09-17T07:39:00;55.21;51.09;63.96;;
74504;Laerm;62988;55.776;37.544;2022-09-17T07:41:25;56.90;51.91;67.08;;
74504;Laerm;62988;55.776;37.544;2022-09-17T07:43:52;59.60;53.05;68.87;;
74504;Laerm;62988;55.776;37.544;2022-09-17T07:46:19;59.67;52.96;68.73;;
74504;Laerm;62988;55.776;37.544;2022-09-17T07:48:48;58.24;54.02;72.77;;
74504;Laerm;62988;55.776;37.544;2022-09-17T07:51:15;57.24;53.21;66.37;;
74504;Laerm;62988;55.776;37.544;2022-09-17T07:53:41;60.11;54.71;70.32;;
74504;Laerm;62988;55.776;37.544;2022-09-17T07:56:06;58.89;52.26;80.67;;
74504;Laerm;62988;55.776;37.544;2022-09-17T07:58:33;60.68;53.90;67.97;;
74504;Laerm;62988;55.776;37.544;2022-09-17T08:01:08;56.76;51.74;67.92;;
74504;Laerm;62988;55.776;37.544;2022-09-17T08:03:35;57.48;51.43;73.60;;
74504;Laerm;62988;55.776;37.544;2022-09-17T08:06:07;55.50;51.79;68.41;;
74504;Laerm;62988;55.776;37.544;2022-09-17T08:08:33;60.31;53.18;71.24;;
74504;Laerm;62988;55.776;37.544;2022-09-17T08:11:05;58.80;50.66;70.90;;
74504;Laerm;62988;55.776;37.544;2022-09-17T08:13:32;58.39;50.58;66.13;;
74504;Laerm;62988;55.776;37.544;2022-09-17T08:16:05;55.94;51.30;65.71;;
74504;Laerm;62988;55.776;37.544;2022-09-17T08:18:32;57.17;52.92;62.68;;
74504;Laerm;62988;55.776;37.544;2022-09-17T08:20:58;57.56;53.05;65.77;;
74504;Laerm;62988;55.776;37.544;2022-09-17T08:23:28;57.30;51.51;69.58;;
74504;Laerm;62988;55.776;37.544;2022-09-17T08:25:55;59.49;51.76;86.65;;
74504;Laerm;62988;55.776;37.544;2022-09-17T08:28:22;56.89;51.33;66.32;;
74504;Laerm;62988;55.776;37.544;2022-09-17T08:30:48;60.18;51.71;68.42;;
74504;Laerm;62988;55.776;37.544;2022-09-17T08:33:15;59.23;52.95;70.59;;
74504;Laerm;62988;55.776;37.544;2022-09-17T08:35:41;57.10;53.26;67.61;;
74504;Laerm;62988;55.776;37.544;2022-09-17T08:38:06;57.10;52.07;67.33;;
74504;Laerm;62988;55.776;37.544;2022-09-17T08:40:39;56.83;51.40;65.49;;
74504;Laerm;62988;55.776;37.544;2022-09-17T08:43:15;58.38;52.04;73.03;;
74504;Laerm;62988;55.776;37.544;2022-09-17T08:45:43;59.97;50.98;77.73;;
74504;Laerm;62988;55.776;37.544;2022-09-17T08:48:11;60.27;52.58;71.19;;
74504;Laerm;62988;55.776;37.544;2022-09-17T08:50:40;68.16;53.20;80.51;;
74504;Laerm;62988;55.776;37.544;2022-09-17T08:55:39;60.31;55.38;68.51;;
74504;Laerm;62988;55.776;37.544;2022-09-17T09:01:50;56.48;51.38;64.32;;
74504;Laerm;62988;55.776;37.544;2022-09-17T09:06:41;58.56;53.08;65.81;;
74504;Laerm;62988;55.776;37.544;2022-09-17T09:09:14;56.35;51.72;65.35;;
74504;Laerm;62988;55.776;37.544;2022-09-17T09:11:41;58.36;51.09;71.93;;
74504;Laerm;62988;55.776;37.544;2022-09-17T09:14:23;63.38;50.61;88.70;;
74504;Laerm;62988;55.776;37.544;2022-09-17T09:16:53;54.63;49.20;72.55;;
74504;Laerm;62988;55.776;37.544;2022-09-17T09:19:29;55.24;50.56;62.08;;
74504;Laerm;62988;55.776;37.544;2022-09-17T09:22:27;53.42;49.70;67.97;;
74504;Laerm;62988;55.776;37.544;2022-09-17T09:25:23;55.48;49.08;75.00;;
74504;Laerm;62988;55.776;37.544;2022-09-17T09:33:14;57.52;52.85;65.30;;
74504;Laerm;62988;55.776;37.544;2022-09-17T09:35:42;55.87;51.34;65.42;;
74504;Laerm;62988;55.776;37.544;2022-09-17T09:40:41;55.38;51.05;68.65;;
74504;Laerm;62988;55.776;37.544;2022-09-17T09:57:48;56.05;49.99;64.51;;
74504;Laerm;62988;55.776;37.544;2022-09-17T10:06:08;56.00;50.32;69.85;;
74504;Laerm;62988;55.776;37.544;2022-09-17T10:08:37;55.15;50.31;71.20;;
74504;Laerm;62988;55.776;37.544;2022-09-17T10:11:19;54.95;50.28;65.03;;
74504;Laerm;62988;55.776;37.544;2022-09-17T10:13:45;55.58;49.43;69.52;;
74504;Laerm;62988;55.776;37.544;2022-09-17T10:16:24;53.91;49.03;70.54;;
74504;Laerm;62988;55.776;37.544;2022-09-17T10:21:39;56.20;51.09;68.91;;
74504;Laerm;62988;55.776;37.544;2022-09-17T10:24:27;57.56;53.03;69.40;;
74504;Laerm;62988;55.776;37.544;2022-09-17T10:27:03;59.90;53.24;81.96;;
74504;Laerm;62988;55.776;37.544;2022-09-17T10:29:30;57.14;52.69;62.26;;
74504;Laerm;62988;55.776;37.544;2022-09-17T10:31:56;56.27;51.79;63.21;;
74504;Laerm;62988;55.776;37.544;2022-09-17T10:34:27;55.46;49.29;65.33;;
74504;Laerm;62988;55.776;37.544;2022-09-17T10:36:54;56.42;51.80;64.20;;
74504;Laerm;62988;55.776;37.544;2022-09-17T10:39:30;56.73;49.47;73.75;;
74504;Laerm;62988;55.776;37.544;2022-09-17T10:42:10;55.80;50.55;68.38;;
74504;Laerm;62988;55.776;37.544;2022-09-17T10:44:38;55.26;50.22;63.67;;
74504;Laerm;62988;55.776;37.544;2022-09-17T10:47:21;56.83;51.56;70.86;;
74504;Laerm;62988;55.776;37.544;2022-09-17T10:52:32;58.44;53.00;69.01;;
74504;Laerm;62988;55.776;37.544;2022-09-17T11:00:18;56.07;50.82;71.44;;
74504;Laerm;62988;55.776;37.544;2022-09-17T11:06:12;57.80;51.83;72.69;;
74504;Laerm;62988;55.776;37.544;2022-09-17T11:25:59;59.69;54.55;74.44;;
74504;Laerm;62988;55.776;37.544;2022-09-17T11:28:40;57.79;52.55;66.15;;
74504;Laerm;62988;55.776;37.544;2022-09-17T11:36:46;53.71;49.36;67.38;;
74504;Laerm;62988;55.776;37.544;2022-09-17T11:39:28;55.36;49.47;70.89;;
74504;Laerm;62988;55.776;37.544;2022-09-17T11:41:59;56.48;48.97;66.16;;
74504;Laerm;62988;55.776;37.544;2022-09-17T11:44:32;57.45;51.59;66.61;;
74504;Laerm;62988;55.776;37.544;2022-09-17T11:47:09;59.34;51.32;72.33;;
74504;Laerm;62988;55.776;37.544;2022-09-17T11:49:47;55.97;50.92;69.20;;
74504;Laerm;62988;55.776;37.544;2022-09-17T11:52:43;55.78;51.61;63.07;;
74504;Laerm;62988;55.776;37.544;2022-09-17T11:57:38;55.69;51.09;68.74;;
74504;Laerm;62988;55.776;37.544;2022-09-17T12:00:13;56.20;51.04;68.52;;
74504;Laerm;62988;55.776;37.544;2022-09-17T12:03:22;55.26;50.85;61.48;;
74504;Laerm;62988;55.776;37.544;2022-09-17T12:05:51;55.21;51.80;60.28;;
74504;Laerm;62988;55.776;37.544;2022-09-17T12:08:44;59.00;51.50;68.32;;
74504;Laerm;62988;55.776;37.544;2022-09-17T12:11:22;58.17;52.16;65.53;;
74504;Laerm;62988;55.776;37.544;2022-09-17T12:13:54;58.04;53.08;70.51;;
74504;Laerm;62988;55.776;37.544;2022-09-17T12:16:25;60.72;54.67;81.51;;
74504;Laerm;62988;55.776;37.544;2022-09-17T12:19:17;57.41;53.11;63.91;;
74504;Laerm;62988;55.776;37.544;2022-09-17T12:21:59;58.24;53.92;65.60;;
74504;Laerm;62988;55.776;37.544;2022-09-17T12:24:29;57.28;53.46;64.90;;
74504;Laerm;62988;55.776;37.544;2022-09-17T12:27:03;59.43;53.32;71.36;;
74504;Laerm;62988;55.776;37.544;2022-09-17T12:29:46;58.51;53.69;65.83;;
74504;Laerm;62988;55.776;37.544;2022-09-17T12:37:42;55.47;51.56;63.92;;
74504;Laerm;62988;55.776;37.544;2022-09-17T12:40:56;56.05;51.16;63.89;;
74504;Laerm;62988;55.776;37.544;2022-09-17T12:44:21;55.26;51.14;65.26;;
74504;Laerm;62988;55.776;37.544;2022-09-17T12:48:44;55.84;51.31;61.83;;
74504;Laerm;62988;55.776;37.544;2022-09-17T12:51:44;56.11;51.46;65.37;;
74504;Laerm;62988;55.776;37.544;2022-09-17T12:59:23;56.79;50.74;71.43;;
74504;Laerm;62988;55.776;37.544;2022-09-17T13:02:23;57.47;52.68;69.03;;
74504;Laerm;62988;55.776;37.544;2022-09-17T13:10:49;58.19;52.36;68.73;;
74504;Laerm;62988;55.776;37.544;2022-09-17T13:21:47;58.15;52.74;67.62;;
74504;Laerm;62988;55.776;37.544;2022-09-17T13:24:19;56.84;51.96;66.46;;
74504;Laerm;62988;55.776;37.544;2022-09-17T13:26:47;56.89;52.71;64.21;;
74504;Laerm;62988;55.776;37.544;2022-09-17T13:32:08;57.66;53.10;73.30;;
74504;Laerm;62988;55.776;37.544;2022-09-17T13:34:33;57.20;51.96;68.18;;
74504;Laerm;62988;55.776;37.544;2022-09-17T13:37:04;57.65;53.50;63.69;;
74504;Laerm;62988;55.776;37.544;2022-09-17T13:39:44;58.70;53.28;68.57;;
74504;Laerm;62988;55.776;37.544;2022-09-17T13:42:15;58.06;52.17;68.11;;
74504;Laerm;62988;55.776;37.544;2022-09-17T13:45:03;57.32;51.86;70.03;;
74504;Laerm;62988;55.776;37.544;2022-09-17T13:47:34;56.63;51.92;67.16;;
74504;Laerm;62988;55.776;37.544;2022-09-17T13:50:05;57.02;51.36;69.28;;
74504;Laerm;62988;55.776;37.544;2022-09-17T13:52:38;56.14;51.82;61.89;;
74504;Laerm;62988;55.776;37.544;2022-09-17T13:55:06;57.01;52.62;63.10;;
74504;Laerm;62988;55.776;37.544;2022-09-17T13:57:47;57.46;52.58;73.80;;
74504;Laerm;62988;55.776;37.544;2022-09-17T14:32:23;55.27;50.90;73.68;;
74504;Laerm;62988;55.776;37.544;2022-09-17T14:35:00;55.18;49.49;60.56;;
74504;Laerm;62988;55.776;37.544;2022-09-17T14:37:26;55.20;50.37;60.31;;
74504;Laerm;62988;55.776;37.544;2022-09-17T14:39:52;56.60;51.36;65.19;;
74504;Laerm;62988;55.776;37.544;2022-09-17T14:42:23;57.33;52.02;66.73;;
74504;Laerm;62988;55.776;37.544;2022-09-17T14:45:02;55.83;52.07;68.71;;
74504;Laerm;62988;55.776;37.544;2022-09-17T14:47:29;52.99;47.73;69.23;;
74504;Laerm;62988;55.776;37.544;2022-09-17T14:49:54;52.39;49.07;56.81;;
74504;Laerm;62988;55.776;37.544;2022-09-17T14:52:47;53.75;49.03;61.86;;
74504;Laerm;62988;55.776;37.544;2022-09-17T14:55:23;58.46;48.68;75.81;;
74504;Laerm;62988;55.776;37.544;2022-09-17T14:57:55;54.02;48.73;67.62;;
74504;Laerm;62988;55.776;37.544;2022-09-17T15:00:23;53.82;49.23;60.89;;
74504;Laerm;62988;55.776;37.544;2022-09-17T15:02:51;54.74;49.50;65.99;;
74504;Laerm;62988;55.776;37.544;2022-09-17T15:10:43;56.28;51.69;65.92;;
74504;Laerm;62988;55.776;37.544;2022-09-17T15:13:16;57.05;51.58;72.19;;
74504;Laerm;62988;55.776;37.544;2022-09-17T15:16:43;55.38;51.23;67.18;;
74504;Laerm;62988;55.776;37.544;2022-09-17T15:18:46;55.18;50.86;63.47;;
74504;Laerm;62988;55.776;37.544;2022-09-17T15:21:35;56.84;52.04;67.38;;
74504;Laerm;62988;55.776;37.544;2022-09-17T15:26:49;55.12;49.86;62.53;;
74504;Laerm;62988;55.776;37.544;2022-09-17T15:29:20;55.42;51.62;62.22;;
74504;Laerm;62988;55.776;37.544;2022-09-17T15:31:47;55.36;50.74;65.40;;
74504;Laerm;62988;55.776;37.544;2022-09-17T15:34:13;56.20;52.61;62.49;;
74504;Laerm;62988;55.776;37.544;2022-09-17T15:36:38;57.05;52.14;62.52;;
74504;Laerm;62988;55.776;37.544;2022-09-17T15:39:30;57.95;53.87;70.56;;
74504;Laerm;62988;55.776;37.544;2022-09-17T15:41:56;63.78;53.00;85.91;;
74504;Laerm;62988;55.776;37.544;2022-09-17T15:44:23;56.01;51.67;63.31;;
74504;Laerm;62988;55.776;37.544;2022-09-17T15:46:53;55.82;51.48;60.43;;
74504;Laerm;62988;55.776;37.544;2022-09-17T15:49:31;56.18;52.57;61.95;;
74504;Laerm;62988;55.776;37.544;2022-09-17T15:52:18;56.84;50.60;68.62;;
74504;Laerm;62988;55.776;37.544;2022-09-17T15:54:51;56.51;52.08;65.68;;
74504;Laerm;62988;55.776;37.544;2022-09-17T15:57:16;56.06;51.65;61.82;;
74504;Laerm;62988;55.776;37.544;2022-09-17T15:59:42;54.98;51.45;58.22;;
74504;Laerm;62988;55.776;37.544;2022-09-17T16:02:24;55.64;50.98;67.97;;
74504;Laerm;62988;55.776;37.544;2022-09-17T16:05:42;55.00;50.55;63.16;;
74504;Laerm;62988;55.776;37.544;2022-09-17T16:07:46;55.73;51.64;60.64;;
74504;Laerm;62988;55.776;37.544;2022-09-17T16:10:13;55.78;51.55;60.83;;
74504;Laerm;62988;55.776;37.544;2022-09-17T16:12:39;55.61;52.08;63.19;;
74504;Laerm;62988;55.776;37.544;2022-09-17T16:15:06;55.84;51.40;64.75;;
74504;Laerm;62988;55.776;37.544;2022-09-17T16:20:23;57.83;53.26;77.05;;
74504;Laerm;62988;55.776;37.544;2022-09-17T16:22:50;57.90;52.41;76.01;;
74504;Laerm;62988;55.776;37.544;2022-09-17T16:25:17;55.90;51.12;66.19;;
74504;Laerm;62988;55.776;37.544;2022-09-17T16:27:53;55.46;50.32;69.46;;
74504;Laerm;62988;55.776;37.544;2022-09-17T16:30:21;55.68;50.15;74.15;;
74504;Laerm;62988;55.776;37.544;2022-09-17T16:32:47;54.91;49.28;75.90;;
74504;Laerm;62988;55.776;37.544;2022-09-17T16:35:18;56.17;51.13;71.70;;
74504;Laerm;62988;55.776;37.544;2022-09-17T16:37:52;55.28;51.81;63.18;;
74504;Laerm;62988;55.776;37.544;2022-09-17T16:40:20;56.51;51.79;69.85;;
74504;Laerm;62988;55.776;37.544;2022-09-17T16:42:46;55.22;50.54;60.96;;
74504;Laerm;62988;55.776;37.544;2022-09-17T16:45:12;55.28;51.72;58.90;;
74504;Laerm;62988;55.776;37.544;2022-09-17T16:47:39;55.60;50.02;76.42;;
74504;Laerm;62988;55.776;37.544;2022-09-17T16:50:08;54.83;51.37;59.41;;
74504;Laerm;62988;55.776;37.544;2022-09-17T16:52:34;54.57;50.29;63.06;;
74504;Laerm;62988;55.776;37.544;2022-09-17T16:55:01;55.72;50.47;67.18;;